Terminal Aerodrome Forecast
Issued by NWS Pocatello, ID

Home | Current Version | Previous Version | Text Only | Print | Product List | Glossary On
Versions: 1 2 3 4 5 6 7 8 9 10 11 12 13 14 15 16 17 18
000
FTUS45 KPIH 212339 AAA
TAFIDA
TAF AMD
KIDA 212339Z 2200/2224 VRB05KT 6SM BR OVC007
      TEMPO 2200/2204 1SM -RA BR OVC003
     FM220400 19005KT P6SM VCSH OVC010
     FM221900 22009KT P6SM OVC040=

USA.gov is the U.S. government's official web portal to all federal, state and local government web resources and services.